sensor_id;sensor_type;location;lat;lon;timestamp;pressure;altitude;pressure_sealevel;temperature;humidity
49801;BME280;35698;50.232;30.540;2023-02-13T00:00:41;101915.66;;;-3.00;100.00
49801;BME280;35698;50.232;30.540;2023-02-13T00:01:52;101908.02;;;-2.95;100.00
49801;BME280;35698;50.232;30.540;2023-02-13T00:02:55;101916.35;;;-3.07;100.00
49801;BME280;35698;50.232;30.540;2023-02-13T00:04:06;101912.28;;;-2.98;100.00
49801;BME280;35698;50.232;30.540;2023-02-13T00:05:10;101912.81;;;-3.11;100.00
49801;BME280;35698;50.232;30.540;2023-02-13T00:06:13;101915.40;;;-3.11;100.00
49801;BME280;35698;50.232;30.540;2023-02-13T00:07:24;101911.25;;;-3.04;100.00
49801;BME280;35698;50.232;30.540;2023-02-13T00:08:28;101910.91;;;-3.18;100.00
49801;BME280;35698;50.232;30.540;2023-02-13T00:09:31;101915.20;;;-3.18;100.00
49801;BME280;35698;50.232;30.540;2023-02-13T00:10:34;101910.00;;;-3.20;100.00
49801;BME280;35698;50.232;30.540;2023-02-13T00:11:46;101912.85;;;-3.09;100.00
49801;BME280;35698;50.232;30.540;2023-02-13T00:12:49;101911.67;;;-3.22;100.00
49801;BME280;35698;50.232;30.540;2023-02-13T00:13:53;101909.05;;;-3.23;100.00
49801;BME280;35698;50.232;30.540;2023-02-13T00:14:56;101908.28;;;-3.19;100.00
49801;BME280;35698;50.232;30.540;2023-02-13T00:16:02;101911.47;;;-3.30;100.00
49801;BME280;35698;50.232;30.540;2023-02-13T00:17:13;101905.70;;;-3.19;100.00
49801;BME280;35698;50.232;30.540;2023-02-13T00:18:16;101903.64;;;-3.33;100.00
49801;BME280;35698;50.232;30.540;2023-02-13T00:19:20;101903.48;;;-3.39;100.00
49801;BME280;35698;50.232;30.540;2023-02-13T00:20:23;101902.69;;;-3.36;100.00
49801;BME280;35698;50.232;30.540;2023-02-13T00:21:26;101895.77;;;-3.37;100.00
49801;BME280;35698;50.232;30.540;2023-02-13T00:22:38;101890.95;;;-3.23;100.00
49801;BME280;35698;50.232;30.540;2023-02-13T00:23:41;101895.73;;;-3.39;100.00
49801;BME280;35698;50.232;30.540;2023-02-13T00:24:45;101888.81;;;-3.40;100.00
49801;BME280;35698;50.232;30.540;2023-02-13T00:25:56;101888.09;;;-3.34;100.00
49801;BME280;35698;50.232;30.540;2023-02-13T00:27:00;101889.56;;;-3.44;100.00
49801;BME280;35698;50.232;30.540;2023-02-13T00:28:03;101887.94;;;-3.40;100.00
49801;BME280;35698;50.232;30.540;2023-02-13T00:29:07;101886.94;;;-3.47;100.00
49801;BME280;35698;50.232;30.540;2023-02-13T00:30:14;101886.06;;;-3.46;100.00
49801;BME280;35698;50.232;30.540;2023-02-13T00:31:19;101890.44;;;-3.43;100.00
49801;BME280;35698;50.232;30.540;2023-02-13T00:32:30;101889.88;;;-3.32;100.00
49801;BME280;35698;50.232;30.540;2023-02-13T00:33:34;101883.60;;;-3.41;100.00
49801;BME280;35698;50.232;30.540;2023-02-13T00:34:37;101882.77;;;-3.40;100.00
49801;BME280;35698;50.232;30.540;2023-02-13T00:35:41;101875.77;;;-3.44;100.00
49801;BME280;35698;50.232;30.540;2023-02-13T00:36:52;101884.64;;;-3.35;100.00
49801;BME280;35698;50.232;30.540;2023-02-13T00:37:56;101881.77;;;-3.47;100.00
49801;BME280;35698;50.232;30.540;2023-02-13T00:38:59;101880.11;;;-3.43;100.00
49801;BME280;35698;50.232;30.540;2023-02-13T00:40:03;101876.65;;;-3.44;100.00
49801;BME280;35698;50.232;30.540;2023-02-13T00:41:07;101882.61;;;-3.46;100.00
49801;BME280;35698;50.232;30.540;2023-02-13T00:42:19;101879.31;;;-3.41;100.00
49801;BME280;35698;50.232;30.540;2023-02-13T00:43:22;101880.86;;;-3.49;100.00
49801;BME280;35698;50.232;30.540;2023-02-13T00:44:26;101879.81;;;-3.55;100.00
49801;BME280;35698;50.232;30.540;2023-02-13T00:45:37;101884.44;;;-3.42;100.00
49801;BME280;35698;50.232;30.540;2023-02-13T00:46:40;101872.11;;;-3.54;100.00
49801;BME280;35698;50.232;30.540;2023-02-13T00:47:43;101867.70;;;-3.58;100.00
49801;BME280;35698;50.232;30.540;2023-02-13T00:48:47;101859.23;;;-3.52;100.00
49801;BME280;35698;50.232;30.540;2023-02-13T00:49:58;101868.22;;;-3.37;100.00
49801;BME280;35698;50.232;30.540;2023-02-13T00:51:21;101872.11;;;-3.54;100.00
49801;BME280;35698;50.232;30.540;2023-02-13T00:52:24;101864.36;;;-3.54;100.00
49801;BME280;35698;50.232;30.540;2023-02-13T00:53:36;101870.69;;;-3.41;100.00
49801;BME280;35698;50.232;30.540;2023-02-13T00:54:40;101869.48;;;-3.55;100.00
49801;BME280;35698;50.232;30.540;2023-02-13T00:55:43;101866.94;;;-3.54;100.00
49801;BME280;35698;50.232;30.540;2023-02-13T00:56:54;101863.73;;;-3.44;100.00
49801;BME280;35698;50.232;30.540;2023-02-13T00:57:58;101854.63;;;-3.64;100.00
49801;BME280;35698;50.232;30.540;2023-02-13T00:59:01;101868.61;;;-3.56;100.00
49801;BME280;35698;50.232;30.540;2023-02-13T01:00:18;101861.11;;;-3.45;100.00
49801;BME280;35698;50.232;30.540;2023-02-13T01:01:22;101859.07;;;-3.58;100.00
49801;BME280;35698;50.232;30.540;2023-02-13T01:02:45;101863.45;;;-3.56;100.00
49801;BME280;35698;50.232;30.540;2023-02-13T01:04:06;101862.69;;;-3.52;100.00
49801;BME280;35698;50.232;30.540;2023-02-13T01:05:10;101870.40;;;-3.53;100.00
49801;BME280;35698;50.232;30.540;2023-02-13T01:06:13;101862.73;;;-3.50;100.00
49801;BME280;35698;50.232;30.540;2023-02-13T01:07:17;101863.45;;;-3.56;100.00
49801;BME280;35698;50.232;30.540;2023-02-13T01:08:20;101853.20;;;-3.53;100.00
49801;BME280;35698;50.232;30.540;2023-02-13T01:10:31;101861.06;;;-3.48;100.00
49801;BME280;35698;50.232;30.540;2023-02-13T01:11:41;101856.13;;;-3.38;100.00
49801;BME280;35698;50.232;30.540;2023-02-13T01:13:05;101853.20;;;-3.53;100.00
49801;BME280;35698;50.232;30.540;2023-02-13T01:14:08;101851.60;;;-3.48;100.00
49801;BME280;35698;50.232;30.540;2023-02-13T01:15:29;101859.35;;;-3.48;100.00
49801;BME280;35698;50.232;30.540;2023-02-13T01:16:33;101850.73;;;-3.48;100.00
49801;BME280;35698;50.232;30.540;2023-02-13T01:17:37;101844.69;;;-3.49;100.00
49801;BME280;35698;50.232;30.540;2023-02-13T01:18:48;101846.63;;;-3.39;100.00
49801;BME280;35698;50.232;30.540;2023-02-13T01:20:59;101843.85;;;-3.48;100.00
49801;BME280;35698;50.232;30.540;2023-02-13T01:22:03;101850.73;;;-3.48;100.00
49801;BME280;35698;50.232;30.540;2023-02-13T01:23:24;101843.73;;;-3.52;100.00
49801;BME280;35698;50.232;30.540;2023-02-13T01:24:27;101844.72;;;-3.47;100.00
49801;BME280;35698;50.232;30.540;2023-02-13T01:25:31;101841.31;;;-3.45;100.00
49801;BME280;35698;50.232;30.540;2023-02-13T01:26:42;101850.20;;;-3.34;100.00
49801;BME280;35698;50.232;30.540;2023-02-13T01:27:45;101849.14;;;-3.42;100.00
49801;BME280;35698;50.232;30.540;2023-02-13T01:28:53;101839.52;;;-3.49;100.00
49801;BME280;35698;50.232;30.540;2023-02-13T01:30:07;101851.52;;;-3.51;100.00
49801;BME280;35698;50.232;30.540;2023-02-13T01:31:20;101842.22;;;-3.43;100.00
49801;BME280;35698;50.232;30.540;2023-02-13T01:32:24;101849.89;;;-3.46;100.00
49801;BME280;35698;50.232;30.540;2023-02-13T01:33:28;101843.90;;;-3.45;100.00
49801;BME280;35698;50.232;30.540;2023-02-13T01:34:32;101847.39;;;-3.43;100.00
49801;BME280;35698;50.232;30.540;2023-02-13T01:35:38;101843.02;;;-3.45;100.00
49801;BME280;35698;50.232;30.540;2023-02-13T01:36:49;101856.13;;;-3.38;100.00
49801;BME280;35698;50.232;30.540;2023-02-13T01:37:53;101851.61;;;-3.46;100.00
49801;BME280;35698;50.232;30.540;2023-02-13T01:39:04;101843.25;;;-3.36;100.00
49801;BME280;35698;50.232;30.540;2023-02-13T01:40:11;101838.56;;;-3.52;100.00
49801;BME280;35698;50.232;30.540;2023-02-13T01:41:32;101844.61;;;-3.52;100.00
49801;BME280;35698;50.232;30.540;2023-02-13T01:42:44;101841.47;;;-3.39;100.00
49801;BME280;35698;50.232;30.540;2023-02-13T01:43:55;101841.98;;;-3.53;100.00
49801;BME280;35698;50.232;30.540;2023-02-13T01:45:23;101836.06;;;-3.49;100.00
49801;BME280;35698;50.232;30.540;2023-02-13T01:46:37;101837.89;;;-3.44;100.00
49801;BME280;35698;50.232;30.540;2023-02-13T01:47:48;101838.69;;;-3.46;100.00
49801;BME280;35698;50.232;30.540;2023-02-13T01:49:16;101839.44;;;-3.52;100.00
49801;BME280;35698;50.232;30.540;2023-02-13T01:50:53;101828.88;;;-3.61;100.00
49801;BME280;35698;50.232;30.540;2023-02-13T01:52:05;101827.63;;;-3.41;100.00
49801;BME280;35698;50.232;30.540;2023-02-13T01:53:13;101833.36;;;-3.54;100.00
49801;BME280;35698;50.232;30.540;2023-02-13T01:54:35;101829.23;;;-3.46;100.00
49801;BME280;35698;50.232;30.540;2023-02-13T01:57:17;101835.58;;;-3.33;100.00
49801;BME280;35698;50.232;30.540;2023-02-13T01:58:24;101837.14;;;-3.40;100.00
49801;BME280;35698;50.232;30.540;2023-02-13T01:59:50;101830.30;;;-3.38;100.00
49801;BME280;35698;50.232;30.540;2023-02-13T02:01:11;101830.41;;;-3.33;100.00
49801;BME280;35698;50.232;30.540;2023-02-13T02:02:22;101826.27;;;-3.26;100.00
49801;BME280;35698;50.232;30.540;2023-02-13T02:03:32;101838.05;;;-3.38;100.00
49801;BME280;35698;50.232;30.540;2023-02-13T02:04:54;101824.25;;;-3.38;100.00
49801;BME280;35698;50.232;30.540;2023-02-13T02:06:21;101826.11;;;-3.33;100.00
49801;BME280;35698;50.232;30.540;2023-02-13T02:07:32;101828.96;;;-3.22;100.00
49801;BME280;35698;50.232;30.540;2023-02-13T02:08:37;101823.37;;;-3.39;100.00
49801;BME280;35698;50.232;30.540;2023-02-13T02:09:41;101825.28;;;-3.32;100.00
49801;BME280;35698;50.232;30.540;2023-02-13T02:11:09;101828.66;;;-3.34;100.00
49801;BME280;35698;50.232;30.540;2023-02-13T02:12:51;101825.31;;;-3.30;100.00
49801;BME280;35698;50.232;30.540;2023-02-13T02:14:01;101821.90;;;-3.29;100.00
49801;BME280;35698;50.232;30.540;2023-02-13T02:15:06;101820.00;;;-3.36;100.00
49801;BME280;35698;50.232;30.540;2023-02-13T02:16:10;101811.26;;;-3.41;100.00
49801;BME280;35698;50.232;30.540;2023-02-13T02:17:23;101820.19;;;-3.28;100.00
49801;BME280;35698;50.232;30.540;2023-02-13T02:18:28;101812.13;;;-3.41;100.00
49801;BME280;35698;50.232;30.540;2023-02-13T02:21:43;101809.66;;;-3.36;100.00
49801;BME280;35698;50.232;30.540;2023-02-13T02:24:39;101813.34;;;-3.26;100.00
49801;BME280;35698;50.232;30.540;2023-02-13T02:37:12;101807.61;;;-3.51;100.00
49801;BME280;35698;50.232;30.540;2023-02-13T02:44:14;101802.41;;;-3.52;100.00
49801;BME280;35698;50.232;30.540;2023-02-13T02:48:28;101795.60;;;-3.49;100.00
49801;BME280;35698;50.232;30.540;2023-02-13T02:49:34;101801.69;;;-3.45;100.00
49801;BME280;35698;50.232;30.540;2023-02-13T02:51:11;101803.70;;;-3.34;100.00
49801;BME280;35698;50.232;30.540;2023-02-13T02:52:16;101802.52;;;-3.48;100.00
49801;BME280;35698;50.232;30.540;2023-02-13T02:53:37;101796.13;;;-3.26;100.00
49801;BME280;35698;50.232;30.540;2023-02-13T02:54:52;101806.17;;;-3.38;100.00
49801;BME280;35698;50.232;30.540;2023-02-13T02:56:25;101798.49;;;-3.35;100.00
49801;BME280;35698;50.232;30.540;2023-02-13T02:57:31;101808.44;;;-3.52;100.00
49801;BME280;35698;50.232;30.540;2023-02-13T02:58:45;101811.14;;;-3.47;100.00
49801;BME280;35698;50.232;30.540;2023-02-13T02:59:57;101812.25;;;-3.36;100.00
49801;BME280;35698;50.232;30.540;2023-02-13T03:01:04;101812.93;;;-3.43;100.00
49801;BME280;35698;50.232;30.540;2023-02-13T03:02:16;101811.45;;;-3.34;100.00
49801;BME280;35698;50.232;30.540;2023-02-13T03:03:22;101809.44;;;-3.47;100.00
49801;BME280;35698;50.232;30.540;2023-02-13T03:05:43;101812.89;;;-3.45;100.00
49801;BME280;35698;50.232;30.540;2023-02-13T03:06:58;101809.66;;;-3.36;100.00
49801;BME280;35698;50.232;30.540;2023-02-13T03:08:03;101808.64;;;-3.43;100.00
49801;BME280;35698;50.232;30.540;2023-02-13T03:10:26;101809.27;;;-3.17;100.00
49801;BME280;35698;50.232;30.540;2023-02-13T03:11:29;101812.36;;;-3.32;100.00
49801;BME280;35698;50.232;30.540;2023-02-13T03:13:59;101810.58;;;-3.34;100.00
49801;BME280;35698;50.232;30.540;2023-02-13T03:15:04;101800.49;;;-3.23;100.00
49801;BME280;35698;50.232;30.540;2023-02-13T03:16:18;101798.97;;;-3.15;100.00
49801;BME280;35698;50.232;30.540;2023-02-13T03:17:22;101803.16;;;-3.20;100.00
49801;BME280;35698;50.232;30.540;2023-02-13T03:18:28;101793.80;;;-3.15;100.00
49801;BME280;35698;50.232;30.540;2023-02-13T03:21:46;101788.95;;;-3.02;100.00
49801;BME280;35698;50.232;30.540;2023-02-13T03:23:10;101791.31;;;-3.11;100.00
49801;BME280;35698;50.232;30.540;2023-02-13T03:31:38;101781.22;;;-3.00;100.00
49801;BME280;35698;50.232;30.540;2023-02-13T03:33:04;101776.68;;;-3.10;100.00
49801;BME280;35698;50.232;30.540;2023-02-13T03:34:18;101776.78;;;-3.06;100.00
49801;BME280;35698;50.232;30.540;2023-02-13T03:37:14;101790.73;;;-2.99;100.00
49801;BME280;35698;50.232;30.540;2023-02-13T03:41:19;101775.95;;;-3.05;100.00
49801;BME280;35698;50.232;30.540;2023-02-13T03:42:38;101776.09;;;-2.99;100.00
49801;BME280;35698;50.232;30.540;2023-02-13T03:47:41;101752.25;;;-2.85;100.00
49801;BME280;35698;50.232;30.540;2023-02-13T03:48:49;101762.39;;;-2.94;100.00
49801;BME280;35698;50.232;30.540;2023-02-13T03:49:53;101768.23;;;-3.03;100.00
49801;BME280;35698;50.232;30.540;2023-02-13T03:52:49;101765.34;;;-2.78;100.00
49801;BME280;35698;50.232;30.540;2023-02-13T03:53:53;101758.16;;;-2.91;100.00
49801;BME280;35698;50.232;30.540;2023-02-13T03:55:00;101754.83;;;-2.85;100.00
49801;BME280;35698;50.232;30.540;2023-02-13T03:56:17;101760.03;;;-2.84;100.00
49801;BME280;35698;50.232;30.540;2023-02-13T03:57:22;101754.46;;;-3.02;100.00
49801;BME280;35698;50.232;30.540;2023-02-13T03:58:29;101760.41;;;-3.06;100.00
49801;BME280;35698;50.232;30.540;2023-02-13T03:59:35;101753.62;;;-3.01;100.00
49801;BME280;35698;50.232;30.540;2023-02-13T04:00:54;101747.81;;;-2.91;100.00
49801;BME280;35698;50.232;30.540;2023-02-13T04:02:12;101750.37;;;-2.92;100.00
49801;BME280;35698;50.232;30.540;2023-02-13T04:04:59;101746.80;;;-2.98;100.00
49801;BME280;35698;50.232;30.540;2023-02-13T04:06:14;101745.42;;;-2.82;100.00
49801;BME280;35698;50.232;30.540;2023-02-13T04:07:20;101750.43;;;-2.89;100.00
49801;BME280;35698;50.232;30.540;2023-02-13T04:08:44;101751.17;;;-2.95;100.00
49801;BME280;35698;50.232;30.540;2023-02-13T04:09:47;101746.00;;;-2.95;100.00
49801;BME280;35698;50.232;30.540;2023-02-13T04:15:12;101736.86;;;-2.79;100.00
49801;BME280;35698;50.232;30.540;2023-02-13T04:18:08;101725.86;;;-2.69;100.00
49801;BME280;35698;50.232;30.540;2023-02-13T04:19:14;101727.94;;;-2.93;100.00
49801;BME280;35698;50.232;30.540;2023-02-13T04:20:18;101733.33;;;-2.83;100.00
49801;BME280;35698;50.232;30.540;2023-02-13T04:21:33;101726.58;;;-2.76;100.00
49801;BME280;35698;50.232;30.540;2023-02-13T04:22:44;101724.54;;;-2.91;100.00
49801;BME280;35698;50.232;30.540;2023-02-13T04:23:48;101721.15;;;-2.88;100.00
49801;BME280;35698;50.232;30.540;2023-02-13T04:25:14;101725.48;;;-2.87;100.00
49801;BME280;35698;50.232;30.540;2023-02-13T04:29:07;101731.59;;;-2.84;100.00
49801;BME280;35698;50.232;30.540;2023-02-13T04:30:12;101715.27;;;-2.81;100.00
49801;BME280;35698;50.232;30.540;2023-02-13T04:31:34;101717.82;;;-2.83;100.00
49801;BME280;35698;50.232;30.540;2023-02-13T04:32:45;101715.70;;;-2.58;100.00
49801;BME280;35698;50.232;30.540;2023-02-13T04:33:48;101720.91;;;-2.57;100.00
49801;BME280;35698;50.232;30.540;2023-02-13T04:34:51;101714.86;;;-2.57;100.00
49801;BME280;35698;50.232;30.540;2023-02-13T04:36:14;101709.02;;;-2.47;100.00
49801;BME280;35698;50.232;30.540;2023-02-13T04:37:25;101723.61;;;-2.51;100.00
49801;BME280;35698;50.232;30.540;2023-02-13T04:38:28;101715.04;;;-2.48;100.00
49801;BME280;35698;50.232;30.540;2023-02-13T04:39:32;101716.91;;;-2.41;100.00
49801;BME280;35698;50.232;30.540;2023-02-13T04:40:53;101716.09;;;-2.39;100.00
49801;BME280;35698;50.232;30.540;2023-02-13T04:42:14;101716.88;;;-2.43;100.00
49801;BME280;35698;50.232;30.540;2023-02-13T04:43:26;101719.48;;;-2.41;100.00
49801;BME280;35698;50.232;30.540;2023-02-13T04:44:49;101726.53;;;-2.34;100.00
49801;BME280;35698;50.232;30.540;2023-02-13T04:45:52;101724.55;;;-2.47;100.00
49801;BME280;35698;50.232;30.540;2023-02-13T04:47:13;101720.50;;;-2.33;100.00
49801;BME280;35698;50.232;30.540;2023-02-13T04:48:35;101725.71;;;-2.32;100.00
49801;BME280;35698;50.232;30.540;2023-02-13T04:49:40;101723.91;;;-2.36;100.00
49801;BME280;35698;50.232;30.540;2023-02-13T04:50:51;101719.81;;;-2.24;100.00
49801;BME280;35698;50.232;30.540;2023-02-13T04:52:59;101715.53;;;-2.22;100.00
49801;BME280;35698;50.232;30.540;2023-02-13T04:54:16;101717.19;;;-2.26;100.00
49801;BME280;35698;50.232;30.540;2023-02-13T04:55:19;101715.45;;;-2.27;100.00
49801;BME280;35698;50.232;30.540;2023-02-13T04:56:22;101715.61;;;-2.18;100.00
49801;BME280;35698;50.232;30.540;2023-02-13T04:57:26;101713.25;;;-2.06;100.00
49801;BME280;35698;50.232;30.540;2023-02-13T04:58:29;101712.62;;;-1.92;100.00
49801;BME280;35698;50.232;30.540;2023-02-13T04:59:32;101711.77;;;-1.91;100.00
49801;BME280;35698;50.232;30.540;2023-02-13T05:00:36;101721.31;;;-1.89;100.00
49801;BME280;35698;50.232;30.540;2023-02-13T05:01:47;101721.73;;;-1.61;100.00
49801;BME280;35698;50.232;30.540;2023-02-13T05:02:50;101725.80;;;-1.79;100.00
49801;BME280;35698;50.232;30.540;2023-02-13T05:03:54;101715.52;;;-1.74;100.00
49801;BME280;35698;50.232;30.540;2023-02-13T05:04:57;101713.72;;;-1.78;100.00
49801;BME280;35698;50.232;30.540;2023-02-13T05:06:18;101712.03;;;-1.76;100.00
49801;BME280;35698;50.232;30.540;2023-02-13T05:07:29;101714.13;;;-1.51;100.00
49801;BME280;35698;50.232;30.540;2023-02-13T05:08:33;101718.97;;;-1.72;100.00
49801;BME280;35698;50.232;30.540;2023-02-13T05:09:37;101712.82;;;-1.80;100.00
49801;BME280;35698;50.232;30.540;2023-02-13T05:10:48;101713.89;;;-1.66;100.00
49801;BME280;35698;50.232;30.540;2023-02-13T05:11:52;101715.58;;;-1.68;100.00
49801;BME280;35698;50.232;30.540;2023-02-13T05:13:03;101717.62;;;-1.49;100.00
49801;BME280;35698;50.232;30.540;2023-02-13T05:14:06;101706.12;;;-1.66;100.00
49801;BME280;35698;50.232;30.540;2023-02-13T05:15:12;101707.11;;;-1.58;100.00
49801;BME280;35698;50.232;30.540;2023-02-13T05:16:23;101713.09;;;-1.62;100.00
49801;BME280;35698;50.232;30.540;2023-02-13T05:17:27;101717.16;;;-1.79;100.00
49801;BME280;35698;50.232;30.540;2023-02-13T05:18:31;101712.19;;;-1.64;100.00
49801;BME280;35698;50.232;30.540;2023-02-13T05:19:42;101713.06;;;-1.63;100.00
49801;BME280;35698;50.232;30.540;2023-02-13T05:20:45;101710.33;;;-1.73;100.00
49801;BME280;35698;50.232;30.540;2023-02-13T05:21:57;101704.13;;;-1.84;100.00
49801;BME280;35698;50.232;30.540;2023-02-13T05:23:00;101704.13;;;-1.84;100.00
49801;BME280;35698;50.232;30.540;2023-02-13T05:24:11;101718.17;;;-1.68;100.00
49801;BME280;35698;50.232;30.540;2023-02-13T05:25:14;101709.44;;;-1.76;100.00
49801;BME280;35698;50.232;30.540;2023-02-13T05:26:36;101723.98;;;-1.84;100.00
49801;BME280;35698;50.232;30.540;2023-02-13T05:27:47;101728.48;;;-1.71;100.00
49801;BME280;35698;50.232;30.540;2023-02-13T05:28:50;101729.79;;;-1.97;100.00
49801;BME280;35698;50.232;30.540;2023-02-13T05:30:13;101720.48;;;-1.86;100.00
49801;BME280;35698;50.232;30.540;2023-02-13T05:31:24;101720.73;;;-1.70;100.00
49801;BME280;35698;50.232;30.540;2023-02-13T05:32:28;101717.23;;;-1.73;100.00
49801;BME280;35698;50.232;30.540;2023-02-13T05:33:49;101712.14;;;-1.67;100.00
49801;BME280;35698;50.232;30.540;2023-02-13T05:35:10;101722.66;;;-1.58;100.00
49801;BME280;35698;50.232;30.540;2023-02-13T05:36:21;101724.42;;;-1.55;100.00
49801;BME280;35698;50.232;30.540;2023-02-13T05:37:25;101721.81;;;-1.57;100.00
49801;BME280;35698;50.232;30.540;2023-02-13T05:38:46;101726.17;;;-1.54;100.00
49801;BME280;35698;50.232;30.540;2023-02-13T05:40:10;101721.11;;;-1.47;100.00
49801;BME280;35698;50.232;30.540;2023-02-13T05:41:21;101708.33;;;-1.35;100.00
49801;BME280;35698;50.232;30.540;2023-02-13T05:42:25;101714.20;;;-1.46;100.00
49801;BME280;35698;50.232;30.540;2023-02-13T05:43:46;101715.92;;;-1.47;100.00
49801;BME280;35698;50.232;30.540;2023-02-13T05:45:08;101721.93;;;-1.49;100.00
49801;BME280;35698;50.232;30.540;2023-02-13T05:46:20;101708.40;;;-1.30;100.00
49801;BME280;35698;50.232;30.540;2023-02-13T05:47:23;101713.52;;;-1.35;100.00
49801;BME280;35698;50.232;30.540;2023-02-13T05:48:45;101705.58;;;-1.45;100.00
49801;BME280;35698;50.232;30.540;2023-02-13T05:50:07;101705.53;;;-1.48;100.00
49801;BME280;35698;50.232;30.540;2023-02-13T05:51:19;101704.91;;;-1.32;100.00
49801;BME280;35698;50.232;30.540;2023-02-13T05:52:23;101704.87;;;-1.35;100.00
49801;BME280;35698;50.232;30.540;2023-02-13T05:53:44;101705.80;;;-1.30;100.00
49801;BME280;35698;50.232;30.540;2023-02-13T05:55:06;101696.22;;;-1.36;100.00
49801;BME280;35698;50.232;30.540;2023-02-13T05:56:18;101700.53;;;-1.36;100.00
49801;BME280;35698;50.232;30.540;2023-02-13T05:57:21;101706.22;;;-1.60;100.00
49801;BME280;35698;50.232;30.540;2023-02-13T05:58:33;101710.63;;;-1.54;100.00
49801;BME280;35698;50.232;30.540;2023-02-13T05:59:36;101701.78;;;-1.67;100.00
49801;BME280;35698;50.232;30.540;2023-02-13T06:00:40;101700.02;;;-1.70;100.00
49801;BME280;35698;50.232;30.540;2023-02-13T06:01:43;101708.61;;;-1.72;100.00
49801;BME280;35698;50.232;30.540;2023-02-13T06:02:47;101704.82;;;-1.94;100.00
49801;BME280;35698;50.232;30.540;2023-02-13T06:03:58;101707.73;;;-1.73;100.00
49801;BME280;35698;50.232;30.540;2023-02-13T06:05:03;101714.44;;;-1.87;100.00
49801;BME280;35698;50.232;30.540;2023-02-13T06:06:07;101710.41;;;-1.68;100.00
49801;BME280;35698;50.232;30.540;2023-02-13T06:07:10;101706.89;;;-1.72;100.00
49801;BME280;35698;50.232;30.540;2023-02-13T06:08:14;101703.42;;;-1.72;100.00
49801;BME280;35698;50.232;30.540;2023-02-13T06:09:36;101696.70;;;-1.61;100.00
49801;BME280;35698;50.232;30.540;2023-02-13T06:10:47;101689.23;;;-1.41;100.00
49801;BME280;35698;50.232;30.540;2023-02-13T06:11:51;101691.66;;;-1.52;100.00
49801;BME280;35698;50.232;30.540;2023-02-13T06:12:54;101685.58;;;-1.54;100.00
49801;BME280;35698;50.232;30.540;2023-02-13T06:14:05;101687.53;;;-1.39;100.00
49801;BME280;35698;50.232;30.540;2023-02-13T06:15:08;101680.64;;;-1.37;100.00
49801;BME280;35698;50.232;30.540;2023-02-13T06:16:20;101687.05;;;-1.12;100.00
49801;BME280;35698;50.232;30.540;2023-02-13T06:17:23;101685.80;;;-1.39;100.00
49801;BME280;35698;50.232;30.540;2023-02-13T06:18:29;101695.33;;;-1.38;100.00
49801;BME280;35698;50.232;30.540;2023-02-13T06:19:32;101678.05;;;-1.37;100.00
49801;BME280;35698;50.232;30.540;2023-02-13T06:20:43;101682.77;;;-1.09;100.00
49801;BME280;35698;50.232;30.540;2023-02-13T06:21:47;101674.14;;;-1.08;100.00
49801;BME280;35698;50.232;30.540;2023-02-13T06:22:51;101680.16;;;-1.10;100.00
49801;BME280;35698;50.232;30.540;2023-02-13T06:24:04;101677.66;;;-1.03;100.00
49801;BME280;35698;50.232;30.540;2023-02-13T06:25:08;101686.23;;;-1.08;100.00
49801;BME280;35698;50.232;30.540;2023-02-13T06:26:19;101681.25;;;-0.93;100.00
49801;BME280;35698;50.232;30.540;2023-02-13T06:27:22;101688.66;;;-1.20;100.00
49801;BME280;35698;50.232;30.540;2023-02-13T06:28:26;101681.21;;;-0.96;100.00
49801;BME280;35698;50.232;30.540;2023-02-13T06:29:29;101678.56;;;-1.01;100.00
49801;BME280;35698;50.232;30.540;2023-02-13T06:30:36;101664.93;;;-0.81;100.00
49801;BME280;35698;50.232;30.540;2023-02-13T06:31:57;101687.39;;;-0.83;100.00
49801;BME280;35698;50.232;30.540;2023-02-13T06:33:08;101673.80;;;-0.62;100.00
49801;BME280;35698;50.232;30.540;2023-02-13T06:34:11;101678.92;;;-0.69;100.00
49801;BME280;35698;50.232;30.540;2023-02-13T06:35:15;101672.02;;;-0.67;100.00
49801;BME280;35698;50.232;30.540;2023-02-13T06:36:26;101672.11;;;-0.59;100.00
49801;BME280;35698;50.232;30.540;2023-02-13T06:37:30;101678.03;;;-0.71;100.00
49801;BME280;35698;50.232;30.540;2023-02-13T06:38:41;101672.06;;;-0.63;100.00
49801;BME280;35698;50.232;30.540;2023-02-13T06:39:44;101666.08;;;-0.56;100.00
49801;BME280;35698;50.232;30.540;2023-02-13T06:41:06;101665.19;;;-0.58;100.00
49801;BME280;35698;50.232;30.540;2023-02-13T06:42:09;101659.97;;;-0.61;100.00
49801;BME280;35698;50.232;30.540;2023-02-13T06:43:20;101667.06;;;-0.45;100.00
49801;BME280;35698;50.232;30.540;2023-02-13T06:44:23;101666.27;;;-0.40;100.00
49801;BME280;35698;50.232;30.540;2023-02-13T06:45:45;101660.33;;;-0.28;100.00
49801;BME280;35698;50.232;30.540;2023-02-13T06:46:56;101660.29;;;-0.31;100.00
49801;BME280;35698;50.232;30.540;2023-02-13T06:48:00;101662.84;;;-0.36;100.00
49801;BME280;35698;50.232;30.540;2023-02-13T06:49:21;101660.29;;;-0.31;100.00
49801;BME280;35698;50.232;30.540;2023-02-13T06:50:32;101664.63;;;-0.30;100.00
49801;BME280;35698;50.232;30.540;2023-02-13T06:51:35;101662.94;;;-0.26;100.00
49801;BME280;35698;50.232;30.540;2023-02-13T06:52:57;101653.33;;;-0.35;100.00
49801;BME280;35698;50.232;30.540;2023-02-13T06:54:08;101662.23;;;-0.09;100.00
49801;BME280;35698;50.232;30.540;2023-02-13T06:55:11;101661.22;;;-0.24;100.00
49801;BME280;35698;50.232;30.540;2023-02-13T06:56:33;101659.66;;;-0.06;100.00
49801;BME280;35698;50.232;30.540;2023-02-13T06:57:54;101663.18;;;0.04;100.00
49801;BME280;35698;50.232;30.540;2023-02-13T06:59:08;101658.06;;;0.13;100.00